sensor_id;sensor_type;location;lat;lon;timestamp;temperature;humidity
77582;DHT22;66726;52.388;9.986;2023-05-07T00:01:57;11.70;99.90
77582;DHT22;66726;52.388;9.986;2023-05-07T00:04:29;11.80;99.90
77582;DHT22;66726;52.388;9.986;2023-05-07T00:07:05;11.60;99.90
77582;DHT22;66726;52.388;9.986;2023-05-07T00:09:38;11.70;99.90
77582;DHT22;66726;52.388;9.986;2023-05-07T00:12:10;11.70;99.90
77582;DHT22;66726;52.388;9.986;2023-05-07T00:14:42;11.70;99.90
77582;DHT22;66726;52.388;9.986;2023-05-07T00:17:14;11.70;99.90
77582;DHT22;66726;52.388;9.986;2023-05-07T00:19:46;11.70;99.90
77582;DHT22;66726;52.388;9.986;2023-05-07T00:22:18;11.60;99.90
77582;DHT22;66726;52.388;9.986;2023-05-07T00:24:51;11.60;99.90
77582;DHT22;66726;52.388;9.986;2023-05-07T00:27:23;11.50;99.90
77582;DHT22;66726;52.388;9.986;2023-05-07T00:29:55;11.40;99.90
77582;DHT22;66726;52.388;9.986;2023-05-07T00:32:26;11.50;99.90
77582;DHT22;66726;52.388;9.986;2023-05-07T00:34:58;11.60;99.90
77582;DHT22;66726;52.388;9.986;2023-05-07T00:37:30;11.40;99.90
77582;DHT22;66726;52.388;9.986;2023-05-07T00:40:04;11.50;99.90
77582;DHT22;66726;52.388;9.986;2023-05-07T00:42:38;11.40;99.90
77582;DHT22;66726;52.388;9.986;2023-05-07T00:45:10;11.50;99.90
77582;DHT22;66726;52.388;9.986;2023-05-07T00:47:42;11.50;99.90
77582;DHT22;66726;52.388;9.986;2023-05-07T00:50:14;11.60;99.90
77582;DHT22;66726;52.388;9.986;2023-05-07T00:52:47;11.40;99.90
77582;DHT22;66726;52.388;9.986;2023-05-07T00:55:21;11.50;99.90
77582;DHT22;66726;52.388;9.986;2023-05-07T00:57:53;11.40;99.90
77582;DHT22;66726;52.388;9.986;2023-05-07T01:00:25;11.40;99.90
77582;DHT22;66726;52.388;9.986;2023-05-07T01:02:57;11.40;99.90
77582;DHT22;66726;52.388;9.986;2023-05-07T01:05:30;11.30;99.90
77582;DHT22;66726;52.388;9.986;2023-05-07T01:08:03;11.20;99.90
77582;DHT22;66726;52.388;9.986;2023-05-07T01:10:38;11.30;99.90
77582;DHT22;66726;52.388;9.986;2023-05-07T01:13:11;11.30;99.90
77582;DHT22;66726;52.388;9.986;2023-05-07T01:15:44;11.30;99.90
77582;DHT22;66726;52.388;9.986;2023-05-07T01:18:16;11.30;99.90
77582;DHT22;66726;52.388;9.986;2023-05-07T01:20:48;11.30;99.90
77582;DHT22;66726;52.388;9.986;2023-05-07T01:23:21;11.40;99.90
77582;DHT22;66726;52.388;9.986;2023-05-07T01:25:54;11.40;99.90
77582;DHT22;66726;52.388;9.986;2023-05-07T01:28:26;11.30;99.90
77582;DHT22;66726;52.388;9.986;2023-05-07T01:31:02;11.20;99.90
77582;DHT22;66726;52.388;9.986;2023-05-07T01:33:37;11.20;99.90
77582;DHT22;66726;52.388;9.986;2023-05-07T01:36:11;11.30;99.90
77582;DHT22;66726;52.388;9.986;2023-05-07T01:38:46;11.20;99.90
77582;DHT22;66726;52.388;9.986;2023-05-07T01:41:18;11.20;99.90
77582;DHT22;66726;52.388;9.986;2023-05-07T01:43:52;11.20;99.90
77582;DHT22;66726;52.388;9.986;2023-05-07T01:46:28;11.30;99.90
77582;DHT22;66726;52.388;9.986;2023-05-07T01:49:01;11.30;99.90
77582;DHT22;66726;52.388;9.986;2023-05-07T01:51:32;11.30;99.90
77582;DHT22;66726;52.388;9.986;2023-05-07T01:54:07;11.30;99.90
77582;DHT22;66726;52.388;9.986;2023-05-07T01:56:39;11.20;99.90
77582;DHT22;66726;52.388;9.986;2023-05-07T01:59:10;11.30;99.90
77582;DHT22;66726;52.388;9.986;2023-05-07T02:01:42;11.10;99.90
77582;DHT22;66726;52.388;9.986;2023-05-07T02:04:14;11.20;99.90
77582;DHT22;66726;52.388;9.986;2023-05-07T02:06:46;11.20;99.90
77582;DHT22;66726;52.388;9.986;2023-05-07T02:09:20;11.10;99.90
77582;DHT22;66726;52.388;9.986;2023-05-07T02:11:52;11.10;99.90
77582;DHT22;66726;52.388;9.986;2023-05-07T02:14:24;11.10;99.90
77582;DHT22;66726;52.388;9.986;2023-05-07T02:16:56;11.00;99.90
77582;DHT22;66726;52.388;9.986;2023-05-07T02:19:27;11.00;99.90
77582;DHT22;66726;52.388;9.986;2023-05-07T02:21:59;11.00;99.90
77582;DHT22;66726;52.388;9.986;2023-05-07T02:24:32;11.10;99.90
77582;DHT22;66726;52.388;9.986;2023-05-07T02:27:04;11.20;99.90
77582;DHT22;66726;52.388;9.986;2023-05-07T02:29:36;11.20;99.90
77582;DHT22;66726;52.388;9.986;2023-05-07T02:32:08;11.10;99.90
77582;DHT22;66726;52.388;9.986;2023-05-07T02:34:40;11.10;99.90
77582;DHT22;66726;52.388;9.986;2023-05-07T02:37:12;11.00;99.90
77582;DHT22;66726;52.388;9.986;2023-05-07T02:39:45;10.90;99.90
77582;DHT22;66726;52.388;9.986;2023-05-07T02:42:17;10.90;99.90
77582;DHT22;66726;52.388;9.986;2023-05-07T02:44:49;10.80;99.90
77582;DHT22;66726;52.388;9.986;2023-05-07T02:47:21;10.90;99.90
77582;DHT22;66726;52.388;9.986;2023-05-07T02:49:55;11.00;99.90
77582;DHT22;66726;52.388;9.986;2023-05-07T02:52:27;11.00;99.90
77582;DHT22;66726;52.388;9.986;2023-05-07T02:55:00;10.90;99.90
77582;DHT22;66726;52.388;9.986;2023-05-07T02:57:32;10.90;99.90
77582;DHT22;66726;52.388;9.986;2023-05-07T03:00:10;10.90;99.90
77582;DHT22;66726;52.388;9.986;2023-05-07T03:02:45;10.90;99.90
77582;DHT22;66726;52.388;9.986;2023-05-07T03:05:17;10.70;99.90
77582;DHT22;66726;52.388;9.986;2023-05-07T03:07:49;10.70;99.90
77582;DHT22;66726;52.388;9.986;2023-05-07T03:10:22;10.60;99.90
77582;DHT22;66726;52.388;9.986;2023-05-07T03:12:54;10.60;99.90
77582;DHT22;66726;52.388;9.986;2023-05-07T03:15:26;10.60;99.90
77582;DHT22;66726;52.388;9.986;2023-05-07T03:17:58;10.60;99.90
77582;DHT22;66726;52.388;9.986;2023-05-07T03:20:31;10.60;99.90
77582;DHT22;66726;52.388;9.986;2023-05-07T03:23:04;10.70;99.90
77582;DHT22;66726;52.388;9.986;2023-05-07T03:25:37;10.70;99.90
77582;DHT22;66726;52.388;9.986;2023-05-07T03:28:09;10.70;99.90
77582;DHT22;66726;52.388;9.986;2023-05-07T03:30:41;10.70;99.90
77582;DHT22;66726;52.388;9.986;2023-05-07T03:33:13;10.70;99.90
77582;DHT22;66726;52.388;9.986;2023-05-07T03:35:45;10.60;99.90
77582;DHT22;66726;52.388;9.986;2023-05-07T03:38:17;10.70;99.90
77582;DHT22;66726;52.388;9.986;2023-05-07T03:40:50;10.70;99.90
77582;DHT22;66726;52.388;9.986;2023-05-07T03:43:22;10.70;99.90
77582;DHT22;66726;52.388;9.986;2023-05-07T03:45:54;10.60;99.90
77582;DHT22;66726;52.388;9.986;2023-05-07T03:48:26;10.70;99.90
77582;DHT22;66726;52.388;9.986;2023-05-07T03:50:57;10.60;99.90
77582;DHT22;66726;52.388;9.986;2023-05-07T03:53:29;10.70;99.90
77582;DHT22;66726;52.388;9.986;2023-05-07T03:56:02;10.60;99.90
77582;DHT22;66726;52.388;9.986;2023-05-07T03:58:34;10.60;99.90
77582;DHT22;66726;52.388;9.986;2023-05-07T04:01:06;10.60;99.90
77582;DHT22;66726;52.388;9.986;2023-05-07T04:03:38;10.60;99.90
77582;DHT22;66726;52.388;9.986;2023-05-07T04:06:10;10.60;99.90
77582;DHT22;66726;52.388;9.986;2023-05-07T04:08:42;10.60;99.90
77582;DHT22;66726;52.388;9.986;2023-05-07T04:11:15;10.60;99.90
77582;DHT22;66726;52.388;9.986;2023-05-07T04:13:48;10.60;99.90
77582;DHT22;66726;52.388;9.986;2023-05-07T04:16:20;10.50;99.90
77582;DHT22;66726;52.388;9.986;2023-05-07T04:18:52;10.50;99.90
77582;DHT22;66726;52.388;9.986;2023-05-07T04:21:24;10.50;99.90
77582;DHT22;66726;52.388;9.986;2023-05-07T04:23:56;10.60;99.90
77582;DHT22;66726;52.388;9.986;2023-05-07T04:26:29;10.40;99.90
77582;DHT22;66726;52.388;9.986;2023-05-07T04:29:02;10.50;99.90
77582;DHT22;66726;52.388;9.986;2023-05-07T04:31:33;10.50;99.90
77582;DHT22;66726;52.388;9.986;2023-05-07T04:34:05;10.50;99.90
77582;DHT22;66726;52.388;9.986;2023-05-07T04:36:37;10.50;99.90
77582;DHT22;66726;52.388;9.986;2023-05-07T04:39:09;10.40;99.90
77582;DHT22;66726;52.388;9.986;2023-05-07T04:41:42;10.50;99.90
77582;DHT22;66726;52.388;9.986;2023-05-07T04:44:14;10.40;99.90
77582;DHT22;66726;52.388;9.986;2023-05-07T04:46:46;10.40;99.90
77582;DHT22;66726;52.388;9.986;2023-05-07T04:49:18;10.40;99.90
77582;DHT22;66726;52.388;9.986;2023-05-07T04:51:50;10.40;99.90
77582;DHT22;66726;52.388;9.986;2023-05-07T04:54:22;10.40;99.90
77582;DHT22;66726;52.388;9.986;2023-05-07T04:56:55;10.40;99.90
77582;DHT22;66726;52.388;9.986;2023-05-07T04:59:27;10.30;99.90
77582;DHT22;66726;52.388;9.986;2023-05-07T05:01:58;10.40;99.90
77582;DHT22;66726;52.388;9.986;2023-05-07T05:04:32;10.40;99.90
77582;DHT22;66726;52.388;9.986;2023-05-07T05:07:05;10.40;99.90
77582;DHT22;66726;52.388;9.986;2023-05-07T05:09:37;10.40;99.90
77582;DHT22;66726;52.388;9.986;2023-05-07T05:12:10;10.40;99.90
77582;DHT22;66726;52.388;9.986;2023-05-07T05:14:41;10.40;99.90
77582;DHT22;66726;52.388;9.986;2023-05-07T05:17:13;10.40;99.90
77582;DHT22;66726;52.388;9.986;2023-05-07T05:19:45;10.40;99.90
77582;DHT22;66726;52.388;9.986;2023-05-07T05:22:17;10.40;99.90
77582;DHT22;66726;52.388;9.986;2023-05-07T05:24:49;10.40;99.90
77582;DHT22;66726;52.388;9.986;2023-05-07T05:27:22;10.40;99.90
77582;DHT22;66726;52.388;9.986;2023-05-07T05:29:54;10.50;99.90
77582;DHT22;66726;52.388;9.986;2023-05-07T05:32:26;10.50;99.90
77582;DHT22;66726;52.388;9.986;2023-05-07T05:34:58;10.40;99.90
77582;DHT22;66726;52.388;9.986;2023-05-07T05:37:30;10.40;99.90
77582;DHT22;66726;52.388;9.986;2023-05-07T05:40:01;10.40;99.90
77582;DHT22;66726;52.388;9.986;2023-05-07T05:42:37;10.50;99.90
77582;DHT22;66726;52.388;9.986;2023-05-07T05:45:08;10.60;99.90
77582;DHT22;66726;52.388;9.986;2023-05-07T05:47:41;10.60;99.90
77582;DHT22;66726;52.388;9.986;2023-05-07T05:50:13;10.50;99.90
77582;DHT22;66726;52.388;9.986;2023-05-07T05:52:45;10.40;99.90
77582;DHT22;66726;52.388;9.986;2023-05-07T05:55:17;10.40;99.90
77582;DHT22;66726;52.388;9.986;2023-05-07T05:57:52;10.40;99.90
77582;DHT22;66726;52.388;9.986;2023-05-07T06:00:26;10.50;99.90
77582;DHT22;66726;52.388;9.986;2023-05-07T06:02:59;10.50;99.90
77582;DHT22;66726;52.388;9.986;2023-05-07T06:05:31;10.50;99.90
77582;DHT22;66726;52.388;9.986;2023-05-07T06:08:03;10.60;99.90
77582;DHT22;66726;52.388;9.986;2023-05-07T06:10:35;11.50;99.90
77582;DHT22;66726;52.388;9.986;2023-05-07T06:13:08;10.70;99.90
77582;DHT22;66726;52.388;9.986;2023-05-07T06:15:41;10.70;99.90
77582;DHT22;66726;52.388;9.986;2023-05-07T06:18:15;10.60;99.90
77582;DHT22;66726;52.388;9.986;2023-05-07T06:20:51;10.60;99.90
77582;DHT22;66726;52.388;9.986;2023-05-07T06:23:23;10.60;99.90
77582;DHT22;66726;52.388;9.986;2023-05-07T06:25:54;10.70;99.90
77582;DHT22;66726;52.388;9.986;2023-05-07T06:28:28;10.70;99.90
77582;DHT22;66726;52.388;9.986;2023-05-07T06:31:12;10.70;99.80
77582;DHT22;66726;52.388;9.986;2023-05-07T06:33:46;10.70;99.90
77582;DHT22;66726;52.388;9.986;2023-05-07T06:36:19;10.70;99.90
77582;DHT22;66726;52.388;9.986;2023-05-07T06:38:51;10.70;99.90
77582;DHT22;66726;52.388;9.986;2023-05-07T06:41:23;10.60;99.90
77582;DHT22;66726;52.388;9.986;2023-05-07T06:43:56;10.70;99.90
77582;DHT22;66726;52.388;9.986;2023-05-07T06:46:29;10.70;99.90
77582;DHT22;66726;52.388;9.986;2023-05-07T06:49:01;10.80;99.90
77582;DHT22;66726;52.388;9.986;2023-05-07T06:51:34;10.70;99.90
77582;DHT22;66726;52.388;9.986;2023-05-07T06:54:06;10.70;99.90
77582;DHT22;66726;52.388;9.986;2023-05-07T06:56:38;10.80;99.90
77582;DHT22;66726;52.388;9.986;2023-05-07T06:59:11;10.80;99.90
77582;DHT22;66726;52.388;9.986;2023-05-07T07:01:43;10.80;99.90
77582;DHT22;66726;52.388;9.986;2023-05-07T07:04:15;10.80;99.90
77582;DHT22;66726;52.388;9.986;2023-05-07T07:06:47;10.70;99.90
77582;DHT22;66726;52.388;9.986;2023-05-07T07:09:19;10.80;99.90
77582;DHT22;66726;52.388;9.986;2023-05-07T07:11:51;10.80;99.90
77582;DHT22;66726;52.388;9.986;2023-05-07T07:14:25;10.80;99.90
77582;DHT22;66726;52.388;9.986;2023-05-07T07:16:57;10.80;99.90
77582;DHT22;66726;52.388;9.986;2023-05-07T07:19:28;10.90;99.70
77582;DHT22;66726;52.388;9.986;2023-05-07T07:22:00;10.90;99.50
77582;DHT22;66726;52.388;9.986;2023-05-07T07:24:32;10.80;99.60
77582;DHT22;66726;52.388;9.986;2023-05-07T07:27:04;10.90;99.70
77582;DHT22;66726;52.388;9.986;2023-05-07T07:29:37;11.00;99.30
77582;DHT22;66726;52.388;9.986;2023-05-07T07:32:09;11.10;99.30
77582;DHT22;66726;52.388;9.986;2023-05-07T07:34:41;11.10;99.10
77582;DHT22;66726;52.388;9.986;2023-05-07T07:37:13;11.10;99.10
77582;DHT22;66726;52.388;9.986;2023-05-07T07:39:44;11.10;99.00
77582;DHT22;66726;52.388;9.986;2023-05-07T07:42:18;11.10;98.60
77582;DHT22;66726;52.388;9.986;2023-05-07T07:44:51;11.10;98.70
77582;DHT22;66726;52.388;9.986;2023-05-07T07:47:23;11.10;98.70
77582;DHT22;66726;52.388;9.986;2023-05-07T07:49:55;11.20;98.70
77582;DHT22;66726;52.388;9.986;2023-05-07T07:52:26;11.20;98.50
77582;DHT22;66726;52.388;9.986;2023-05-07T07:54:58;11.20;98.70
77582;DHT22;66726;52.388;9.986;2023-05-07T07:57:32;11.30;98.90
77582;DHT22;66726;52.388;9.986;2023-05-07T08:00:08;11.40;98.80
77582;DHT22;66726;52.388;9.986;2023-05-07T08:02:41;11.30;98.60
77582;DHT22;66726;52.388;9.986;2023-05-07T08:05:13;11.40;98.60
77582;DHT22;66726;52.388;9.986;2023-05-07T08:07:45;11.40;98.40
77582;DHT22;66726;52.388;9.986;2023-05-07T08:10:21;11.50;98.50
77582;DHT22;66726;52.388;9.986;2023-05-07T08:12:54;11.60;98.90
77582;DHT22;66726;52.388;9.986;2023-05-07T08:15:27;11.60;98.30
77582;DHT22;66726;52.388;9.986;2023-05-07T08:18:00;11.70;98.40
77582;DHT22;66726;52.388;9.986;2023-05-07T08:20:32;11.70;98.50
77582;DHT22;66726;52.388;9.986;2023-05-07T08:23:09;11.90;98.80
77582;DHT22;66726;52.388;9.986;2023-05-07T08:25:42;11.90;98.20
77582;DHT22;66726;52.388;9.986;2023-05-07T08:28:14;11.90;98.40
77582;DHT22;66726;52.388;9.986;2023-05-07T08:30:49;11.90;98.00
77582;DHT22;66726;52.388;9.986;2023-05-07T08:33:21;12.00;98.10
77582;DHT22;66726;52.388;9.986;2023-05-07T08:35:53;12.10;98.40
77582;DHT22;66726;52.388;9.986;2023-05-07T08:38:25;12.10;97.60
77582;DHT22;66726;52.388;9.986;2023-05-07T08:40:57;12.10;97.60
77582;DHT22;66726;52.388;9.986;2023-05-07T08:43:29;12.10;97.60
77582;DHT22;66726;52.388;9.986;2023-05-07T08:46:08;12.00;97.50
77582;DHT22;66726;52.388;9.986;2023-05-07T08:48:41;12.00;97.70
77582;DHT22;66726;52.388;9.986;2023-05-07T08:51:15;12.00;97.70
77582;DHT22;66726;52.388;9.986;2023-05-07T08:53:49;12.20;97.90
77582;DHT22;66726;52.388;9.986;2023-05-07T08:56:22;12.00;97.20
77582;DHT22;66726;52.388;9.986;2023-05-07T08:58:54;12.20;97.70
77582;DHT22;66726;52.388;9.986;2023-05-07T09:01:28;12.20;97.90
77582;DHT22;66726;52.388;9.986;2023-05-07T09:04:00;12.20;97.30
77582;DHT22;66726;52.388;9.986;2023-05-07T09:06:32;12.20;97.30
77582;DHT22;66726;52.388;9.986;2023-05-07T09:09:05;12.40;97.60
77582;DHT22;66726;52.388;9.986;2023-05-07T09:11:37;12.40;97.60
77582;DHT22;66726;52.388;9.986;2023-05-07T09:14:09;12.50;97.60
77582;DHT22;66726;52.388;9.986;2023-05-07T09:16:42;12.50;97.20
77582;DHT22;66726;52.388;9.986;2023-05-07T09:19:15;12.60;97.30
77582;DHT22;66726;52.388;9.986;2023-05-07T09:22:02;12.70;97.40
77582;DHT22;66726;52.388;9.986;2023-05-07T09:24:38;12.60;96.80
77582;DHT22;66726;52.388;9.986;2023-05-07T09:27:10;12.80;97.20
77582;DHT22;66726;52.388;9.986;2023-05-07T09:29:42;12.80;96.70
77582;DHT22;66726;52.388;9.986;2023-05-07T09:32:16;12.80;96.80
77582;DHT22;66726;52.388;9.986;2023-05-07T09:34:48;13.00;96.90
77582;DHT22;66726;52.388;9.986;2023-05-07T09:37:21;13.00;96.60
77582;DHT22;66726;52.388;9.986;2023-05-07T09:39:55;12.90;96.50
77582;DHT22;66726;52.388;9.986;2023-05-07T09:42:27;12.90;96.70
77582;DHT22;66726;52.388;9.986;2023-05-07T09:45:00;12.90;96.60
77582;DHT22;66726;52.388;9.986;2023-05-07T09:47:40;12.90;96.40
77582;DHT22;66726;52.388;9.986;2023-05-07T09:50:15;12.90;96.10
77582;DHT22;66726;52.388;9.986;2023-05-07T09:52:49;12.90;96.20
77582;DHT22;66726;52.388;9.986;2023-05-07T09:55:22;13.00;96.60
77582;DHT22;66726;52.388;9.986;2023-05-07T09:57:55;13.00;96.20
77582;DHT22;66726;52.388;9.986;2023-05-07T10:00:29;13.00;96.00
77582;DHT22;66726;52.388;9.986;2023-05-07T10:03:03;13.00;96.20
77582;DHT22;66726;52.388;9.986;2023-05-07T10:05:38;13.10;95.90
77582;DHT22;66726;52.388;9.986;2023-05-07T10:08:13;13.00;95.70
77582;DHT22;66726;52.388;9.986;2023-05-07T10:10:46;13.20;96.40
77582;DHT22;66726;52.388;9.986;2023-05-07T10:13:18;13.20;95.90
77582;DHT22;66726;52.388;9.986;2023-05-07T10:15:53;13.20;95.50
77582;DHT22;66726;52.388;9.986;2023-05-07T10:18:28;13.30;95.60
77582;DHT22;66726;52.388;9.986;2023-05-07T10:21:05;13.30;95.80
77582;DHT22;66726;52.388;9.986;2023-05-07T10:23:42;13.50;95.30
77582;DHT22;66726;52.388;9.986;2023-05-07T10:26:20;13.20;94.70
77582;DHT22;66726;52.388;9.986;2023-05-07T10:29:02;13.40;95.80
77582;DHT22;66726;52.388;9.986;2023-05-07T10:31:48;13.40;95.60
77582;DHT22;66726;52.388;9.986;2023-05-07T10:34:29;13.50;95.40
77582;DHT22;66726;52.388;9.986;2023-05-07T10:37:06;13.80;96.00
77582;DHT22;66726;52.388;9.986;2023-05-07T10:39:39;14.10;95.50
77582;DHT22;66726;52.388;9.986;2023-05-07T10:42:14;14.20;95.20
77582;DHT22;66726;52.388;9.986;2023-05-07T10:44:46;14.20;94.50
77582;DHT22;66726;52.388;9.986;2023-05-07T10:47:19;14.20;94.40
77582;DHT22;66726;52.388;9.986;2023-05-07T10:50:23;14.20;94.50
77582;DHT22;66726;52.388;9.986;2023-05-07T10:53:24;14.20;94.30
77582;DHT22;66726;52.388;9.986;2023-05-07T10:56:28;14.30;94.40
77582;DHT22;66726;52.388;9.986;2023-05-07T10:59:35;14.20;93.70
77582;DHT22;66726;52.388;9.986;2023-05-07T11:02:11;14.30;93.70
77582;DHT22;66726;52.388;9.986;2023-05-07T11:04:45;14.10;93.40
77582;DHT22;66726;52.388;9.986;2023-05-07T11:07:37;14.30;93.90
77582;DHT22;66726;52.388;9.986;2023-05-07T11:10:09;14.20;93.40
77582;DHT22;66726;52.388;9.986;2023-05-07T11:12:51;14.30;93.70
77582;DHT22;66726;52.388;9.986;2023-05-07T11:15:43;14.40;93.90
77582;DHT22;66726;52.388;9.986;2023-05-07T11:18:17;14.50;93.60
77582;DHT22;66726;52.388;9.986;2023-05-07T11:20:52;14.50;93.70
77582;DHT22;66726;52.388;9.986;2023-05-07T11:26:45;14.70;93.40
77582;DHT22;66726;52.388;9.986;2023-05-07T11:29:20;14.60;93.20
77582;DHT22;66726;52.388;9.986;2023-05-07T11:31:52;14.70;93.20
77582;DHT22;66726;52.388;9.986;2023-05-07T11:34:26;14.60;93.30
77582;DHT22;66726;52.388;9.986;2023-05-07T11:37:00;14.60;93.30
77582;DHT22;66726;52.388;9.986;2023-05-07T11:39:34;14.50;93.50
77582;DHT22;66726;52.388;9.986;2023-05-07T11:42:06;14.60;93.90
77582;DHT22;66726;52.388;9.986;2023-05-07T11:44:54;14.60;93.90
77582;DHT22;66726;52.388;9.986;2023-05-07T11:47:26;14.70;94.10
77582;DHT22;66726;52.388;9.986;2023-05-07T11:50:05;14.80;94.00
77582;DHT22;66726;52.388;9.986;2023-05-07T11:52:39;14.80;93.60
77582;DHT22;66726;52.388;9.986;2023-05-07T11:55:21;14.80;93.30
77582;DHT22;66726;52.388;9.986;2023-05-07T11:57:54;14.80;93.50
77582;DHT22;66726;52.388;9.986;2023-05-07T12:00:27;14.90;93.40
77582;DHT22;66726;52.388;9.986;2023-05-07T12:03:03;14.90;92.60
77582;DHT22;66726;52.388;9.986;2023-05-07T12:05:35;14.90;92.50
77582;DHT22;66726;52.388;9.986;2023-05-07T12:08:15;15.00;93.60
77582;DHT22;66726;52.388;9.986;2023-05-07T12:10:50;14.90;92.30
77582;DHT22;66726;52.388;9.986;2023-05-07T12:13:26;14.90;92.40
77582;DHT22;66726;52.388;9.986;2023-05-07T12:15:59;14.90;92.20
77582;DHT22;66726;52.388;9.986;2023-05-07T12:18:35;14.90;92.70
77582;DHT22;66726;52.388;9.986;2023-05-07T12:21:07;14.90;92.10
77582;DHT22;66726;52.388;9.986;2023-05-07T12:23:41;15.00;93.20
77582;DHT22;66726;52.388;9.986;2023-05-07T12:26:14;15.20;92.70
77582;DHT22;66726;52.388;9.986;2023-05-07T12:28:49;15.00;92.60
77582;DHT22;66726;52.388;9.986;2023-05-07T12:31:21;15.30;92.80
77582;DHT22;66726;52.388;9.986;2023-05-07T12:33:54;15.40;92.20
77582;DHT22;66726;52.388;9.986;2023-05-07T12:36:26;15.40;91.80
77582;DHT22;66726;52.388;9.986;2023-05-07T12:39:08;15.50;92.60
77582;DHT22;66726;52.388;9.986;2023-05-07T12:41:58;15.60;92.10
77582;DHT22;66726;52.388;9.986;2023-05-07T12:44:31;15.60;91.90
77582;DHT22;66726;52.388;9.986;2023-05-07T12:47:04;15.70;91.80
77582;DHT22;66726;52.388;9.986;2023-05-07T12:49:36;15.70;91.70
77582;DHT22;66726;52.388;9.986;2023-05-07T12:52:08;15.80;91.60
77582;DHT22;66726;52.388;9.986;2023-05-07T12:54:43;16.00;92.40
77582;DHT22;66726;52.388;9.986;2023-05-07T12:57:21;16.20;91.80
77582;DHT22;66726;52.388;9.986;2023-05-07T12:59:57;16.20;90.50
77582;DHT22;66726;52.388;9.986;2023-05-07T13:02:37;16.00;91.20
77582;DHT22;66726;52.388;9.986;2023-05-07T13:05:12;16.00;91.00
77582;DHT22;66726;52.388;9.986;2023-05-07T13:07:55;16.00;90.90
77582;DHT22;66726;52.388;9.986;2023-05-07T13:10:29;16.20;91.10
77582;DHT22;66726;52.388;9.986;2023-05-07T13:13:02;16.20;91.30
77582;DHT22;66726;52.388;9.986;2023-05-07T13:15:35;16.10;91.50
77582;DHT22;66726;52.388;9.986;2023-05-07T13:18:06;16.20;91.10
77582;DHT22;66726;52.388;9.986;2023-05-07T13:20:39;16.00;90.80
77582;DHT22;66726;52.388;9.986;2023-05-07T13:23:11;16.10;90.80
77582;DHT22;66726;52.388;9.986;2023-05-07T13:25:43;16.30;90.90
77582;DHT22;66726;52.388;9.986;2023-05-07T13:28:16;16.40;90.60
77582;DHT22;66726;52.388;9.986;2023-05-07T13:30:48;16.50;90.80
77582;DHT22;66726;52.388;9.986;2023-05-07T13:33:21;16.60;91.20
77582;DHT22;66726;52.388;9.986;2023-05-07T13:35:52;16.40;90.40
77582;DHT22;66726;52.388;9.986;2023-05-07T13:38:27;16.40;90.30
77582;DHT22;66726;52.388;9.986;2023-05-07T13:40:59;16.30;90.30
77582;DHT22;66726;52.388;9.986;2023-05-07T13:43:32;16.30;90.20
77582;DHT22;66726;52.388;9.986;2023-05-07T13:46:03;16.20;89.00
77582;DHT22;66726;52.388;9.986;2023-05-07T13:48:35;16.00;90.20
77582;DHT22;66726;52.388;9.986;2023-05-07T13:51:07;15.90;90.60
77582;DHT22;66726;52.388;9.986;2023-05-07T13:53:39;16.10;91.00
77582;DHT22;66726;52.388;9.986;2023-05-07T13:56:11;16.00;90.10
77582;DHT22;66726;52.388;9.986;2023-05-07T13:58:44;15.90;90.30
77582;DHT22;66726;52.388;9.986;2023-05-07T14:01:27;16.10;91.00
77582;DHT22;66726;52.388;9.986;2023-05-07T14:04:00;16.20;90.40
77582;DHT22;66726;52.388;9.986;2023-05-07T14:06:32;15.90;90.00
77582;DHT22;66726;52.388;9.986;2023-05-07T14:09:04;16.00;90.20
77582;DHT22;66726;52.388;9.986;2023-05-07T14:11:36;15.90;90.60
77582;DHT22;66726;52.388;9.986;2023-05-07T14:14:09;15.80;90.50
77582;DHT22;66726;52.388;9.986;2023-05-07T14:16:41;16.00;90.90
77582;DHT22;66726;52.388;9.986;2023-05-07T14:19:13;16.00;91.00
77582;DHT22;66726;52.388;9.986;2023-05-07T14:21:45;16.00;90.70
77582;DHT22;66726;52.388;9.986;2023-05-07T14:24:19;16.10;90.60
77582;DHT22;66726;52.388;9.986;2023-05-07T14:27:05;16.10;90.40
77582;DHT22;66726;52.388;9.986;2023-05-07T14:29:39;16.20;90.70
77582;DHT22;66726;52.388;9.986;2023-05-07T14:32:13;16.10;90.00
77582;DHT22;66726;52.388;9.986;2023-05-07T14:34:45;16.10;90.40
77582;DHT22;66726;52.388;9.986;2023-05-07T14:37:17;16.10;90.60
77582;DHT22;66726;52.388;9.986;2023-05-07T14:39:48;15.90;90.00
77582;DHT22;66726;52.388;9.986;2023-05-07T14:42:20;15.90;90.70
77582;DHT22;66726;52.388;9.986;2023-05-07T14:44:53;16.10;90.60
77582;DHT22;66726;52.388;9.986;2023-05-07T14:47:25;15.90;90.10
77582;DHT22;66726;52.388;9.986;2023-05-07T14:49:57;16.10;90.60
77582;DHT22;66726;52.388;9.986;2023-05-07T14:52:31;16.20;90.20
77582;DHT22;66726;52.388;9.986;2023-05-07T14:55:03;16.10;90.10
77582;DHT22;66726;52.388;9.986;2023-05-07T14:57:36;16.30;90.00
77582;DHT22;66726;52.388;9.986;2023-05-07T15:00:11;16.30;90.10
77582;DHT22;66726;52.388;9.986;2023-05-07T15:02:44;16.40;89.60
77582;DHT22;66726;52.388;9.986;2023-05-07T15:05:16;16.70;90.10
77582;DHT22;66726;52.388;9.986;2023-05-07T15:07:48;16.80;87.80
77582;DHT22;66726;52.388;9.986;2023-05-07T15:10:20;16.80;88.00
77582;DHT22;66726;52.388;9.986;2023-05-07T15:12:52;16.80;87.30
77582;DHT22;66726;52.388;9.986;2023-05-07T15:15:25;17.00;88.50
77582;DHT22;66726;52.388;9.986;2023-05-07T15:17:57;16.90;88.10
77582;DHT22;66726;52.388;9.986;2023-05-07T15:20:29;17.00;87.80
77582;DHT22;66726;52.388;9.986;2023-05-07T15:23:02;17.10;88.90
77582;DHT22;66726;52.388;9.986;2023-05-07T15:25:38;17.00;86.50
77582;DHT22;66726;52.388;9.986;2023-05-07T15:28:12;17.00;86.30
77582;DHT22;66726;52.388;9.986;2023-05-07T15:30:45;17.10;86.40
77582;DHT22;66726;52.388;9.986;2023-05-07T15:33:18;16.90;86.60
77582;DHT22;66726;52.388;9.986;2023-05-07T15:35:50;17.00;87.80
77582;DHT22;66726;52.388;9.986;2023-05-07T15:38:22;17.00;87.80
77582;DHT22;66726;52.388;9.986;2023-05-07T15:40:55;17.00;87.80
77582;DHT22;66726;52.388;9.986;2023-05-07T15:43:27;17.00;86.50
77582;DHT22;66726;52.388;9.986;2023-05-07T15:46:00;16.90;88.00
77582;DHT22;66726;52.388;9.986;2023-05-07T15:48:32;16.90;86.80
77582;DHT22;66726;52.388;9.986;2023-05-07T15:51:04;17.00;88.00
77582;DHT22;66726;52.388;9.986;2023-05-07T15:53:39;17.00;86.70
77582;DHT22;66726;52.388;9.986;2023-05-07T15:56:10;17.10;87.10
77582;DHT22;66726;52.388;9.986;2023-05-07T15:58:42;17.20;86.90
77582;DHT22;66726;52.388;9.986;2023-05-07T16:01:16;17.10;86.20
77582;DHT22;66726;52.388;9.986;2023-05-07T16:03:48;17.10;86.50
77582;DHT22;66726;52.388;9.986;2023-05-07T16:06:20;17.10;86.10
77582;DHT22;66726;52.388;9.986;2023-05-07T16:08:52;17.10;86.40
77582;DHT22;66726;52.388;9.986;2023-05-07T16:11:24;17.10;86.30
77582;DHT22;66726;52.388;9.986;2023-05-07T16:13:59;17.20;86.90